sensor_id;sensor_type;location;lat;lon;timestamp;P1;durP1;ratioP1;P2;durP2;ratioP2
7883;SDS011;3987;51.458;7.238;2022-08-21T00:00:16;4.83;;;4.13;;
7883;SDS011;3987;51.458;7.238;2022-08-21T00:02:47;3.80;;;3.60;;
7883;SDS011;3987;51.458;7.238;2022-08-21T00:05:15;8.37;;;4.60;;
7883;SDS011;3987;51.458;7.238;2022-08-21T00:07:40;4.40;;;4.20;;
7883;SDS011;3987;51.458;7.238;2022-08-21T00:10:06;5.07;;;4.10;;
7883;SDS011;3987;51.458;7.238;2022-08-21T00:12:31;7.43;;;4.53;;
7883;SDS011;3987;51.458;7.238;2022-08-21T00:14:57;4.70;;;4.17;;
7883;SDS011;3987;51.458;7.238;2022-08-21T00:17:23;4.80;;;4.27;;
7883;SDS011;3987;51.458;7.238;2022-08-21T00:19:48;4.40;;;4.10;;
7883;SDS011;3987;51.458;7.238;2022-08-21T00:22:14;5.20;;;4.50;;
7883;SDS011;3987;51.458;7.238;2022-08-21T00:24:39;4.00;;;3.70;;
7883;SDS011;3987;51.458;7.238;2022-08-21T00:27:05;7.30;;;4.30;;
7883;SDS011;3987;51.458;7.238;2022-08-21T00:29:30;5.27;;;3.77;;
7883;SDS011;3987;51.458;7.238;2022-08-21T00:31:55;6.67;;;4.07;;
7883;SDS011;3987;51.458;7.238;2022-08-21T00:34:21;4.77;;;3.63;;
7883;SDS011;3987;51.458;7.238;2022-08-21T00:36:47;4.83;;;3.93;;
7883;SDS011;3987;51.458;7.238;2022-08-21T00:39:13;6.23;;;4.53;;
7883;SDS011;3987;51.458;7.238;2022-08-21T00:41:39;4.37;;;3.97;;
7883;SDS011;3987;51.458;7.238;2022-08-21T00:44:06;4.17;;;3.80;;
7883;SDS011;3987;51.458;7.238;2022-08-21T00:46:33;6.87;;;3.70;;
7883;SDS011;3987;51.458;7.238;2022-08-21T00:48:59;4.63;;;3.87;;
7883;SDS011;3987;51.458;7.238;2022-08-21T00:51:26;5.90;;;3.93;;
7883;SDS011;3987;51.458;7.238;2022-08-21T00:53:56;8.13;;;4.07;;
7883;SDS011;3987;51.458;7.238;2022-08-21T00:56:23;8.97;;;3.93;;
7883;SDS011;3987;51.458;7.238;2022-08-21T00:58:49;4.97;;;4.10;;
7883;SDS011;3987;51.458;7.238;2022-08-21T01:01:15;4.90;;;4.60;;
7883;SDS011;3987;51.458;7.238;2022-08-21T01:03:40;4.80;;;4.50;;
7883;SDS011;3987;51.458;7.238;2022-08-21T01:06:06;4.70;;;4.40;;
7883;SDS011;3987;51.458;7.238;2022-08-21T01:08:34;4.50;;;4.10;;
7883;SDS011;3987;51.458;7.238;2022-08-21T01:11:00;4.03;;;3.73;;
7883;SDS011;3987;51.458;7.238;2022-08-21T01:13:27;4.33;;;4.03;;
7883;SDS011;3987;51.458;7.238;2022-08-21T01:15:54;4.87;;;4.50;;
7883;SDS011;3987;51.458;7.238;2022-08-21T01:18:21;5.00;;;4.50;;
7883;SDS011;3987;51.458;7.238;2022-08-21T01:23:48;4.77;;;4.37;;
7883;SDS011;3987;51.458;7.238;2022-08-21T01:26:16;4.47;;;4.07;;
7883;SDS011;3987;51.458;7.238;2022-08-21T01:28:54;4.90;;;4.57;;
7883;SDS011;3987;51.458;7.238;2022-08-21T01:31:22;5.40;;;4.53;;
7883;SDS011;3987;51.458;7.238;2022-08-21T01:33:48;5.93;;;4.83;;
7883;SDS011;3987;51.458;7.238;2022-08-21T01:36:14;5.43;;;4.93;;
7883;SDS011;3987;51.458;7.238;2022-08-21T01:38:39;4.73;;;4.47;;
7883;SDS011;3987;51.458;7.238;2022-08-21T01:41:05;4.80;;;4.40;;
7883;SDS011;3987;51.458;7.238;2022-08-21T01:43:30;4.90;;;4.43;;
7883;SDS011;3987;51.458;7.238;2022-08-21T01:45:56;7.53;;;5.50;;
7883;SDS011;3987;51.458;7.238;2022-08-21T01:48:21;7.07;;;4.40;;
7883;SDS011;3987;51.458;7.238;2022-08-21T01:50:46;5.40;;;5.10;;
7883;SDS011;3987;51.458;7.238;2022-08-21T01:53:12;5.30;;;5.00;;
7883;SDS011;3987;51.458;7.238;2022-08-21T01:55:39;6.07;;;4.70;;
7883;SDS011;3987;51.458;7.238;2022-08-21T01:58:04;5.80;;;5.27;;
7883;SDS011;3987;51.458;7.238;2022-08-21T02:00:30;4.83;;;4.47;;
7883;SDS011;3987;51.458;7.238;2022-08-21T02:02:55;5.07;;;4.60;;
7883;SDS011;3987;51.458;7.238;2022-08-21T02:05:21;4.97;;;4.60;;
7883;SDS011;3987;51.458;7.238;2022-08-21T02:07:50;5.00;;;4.80;;
7883;SDS011;3987;51.458;7.238;2022-08-21T02:10:24;4.60;;;4.40;;
7883;SDS011;3987;51.458;7.238;2022-08-21T02:12:52;5.10;;;4.70;;
7883;SDS011;3987;51.458;7.238;2022-08-21T02:15:18;6.03;;;5.37;;
7883;SDS011;3987;51.458;7.238;2022-08-21T02:17:48;4.67;;;4.50;;
7883;SDS011;3987;51.458;7.238;2022-08-21T02:20:23;4.80;;;4.60;;
7883;SDS011;3987;51.458;7.238;2022-08-21T02:22:52;4.67;;;4.40;;
7883;SDS011;3987;51.458;7.238;2022-08-21T02:25:18;4.80;;;4.60;;
7883;SDS011;3987;51.458;7.238;2022-08-21T02:27:46;4.67;;;4.40;;
7883;SDS011;3987;51.458;7.238;2022-08-21T02:30:21;4.97;;;4.57;;
7883;SDS011;3987;51.458;7.238;2022-08-21T02:32:58;7.20;;;4.87;;
7883;SDS011;3987;51.458;7.238;2022-08-21T02:35:24;5.50;;;4.90;;
7883;SDS011;3987;51.458;7.238;2022-08-21T02:37:51;5.93;;;4.90;;
7883;SDS011;3987;51.458;7.238;2022-08-21T02:40:23;5.53;;;5.03;;
7883;SDS011;3987;51.458;7.238;2022-08-21T02:42:50;5.90;;;4.93;;
7883;SDS011;3987;51.458;7.238;2022-08-21T02:45:16;5.13;;;4.50;;
7883;SDS011;3987;51.458;7.238;2022-08-21T02:47:52;5.03;;;4.83;;
7883;SDS011;3987;51.458;7.238;2022-08-21T02:50:25;4.90;;;4.50;;
7883;SDS011;3987;51.458;7.238;2022-08-21T02:52:53;5.10;;;4.63;;
7883;SDS011;3987;51.458;7.238;2022-08-21T02:55:19;5.13;;;4.67;;
7883;SDS011;3987;51.458;7.238;2022-08-21T02:57:46;5.33;;;4.93;;
7883;SDS011;3987;51.458;7.238;2022-08-21T03:00:12;5.07;;;4.80;;
7883;SDS011;3987;51.458;7.238;2022-08-21T03:02:38;7.57;;;4.93;;
7883;SDS011;3987;51.458;7.238;2022-08-21T03:05:05;5.50;;;5.20;;
7883;SDS011;3987;51.458;7.238;2022-08-21T03:07:33;5.40;;;4.90;;
7883;SDS011;3987;51.458;7.238;2022-08-21T03:09:59;5.13;;;4.73;;
7883;SDS011;3987;51.458;7.238;2022-08-21T03:12:25;5.17;;;4.60;;
7883;SDS011;3987;51.458;7.238;2022-08-21T03:14:50;5.63;;;5.23;;
7883;SDS011;3987;51.458;7.238;2022-08-21T03:17:15;6.27;;;4.97;;
7883;SDS011;3987;51.458;7.238;2022-08-21T03:19:41;4.80;;;4.50;;
7883;SDS011;3987;51.458;7.238;2022-08-21T03:22:06;5.87;;;4.90;;
7883;SDS011;3987;51.458;7.238;2022-08-21T03:24:32;4.70;;;4.60;;
7883;SDS011;3987;51.458;7.238;2022-08-21T03:26:57;5.87;;;5.47;;
7883;SDS011;3987;51.458;7.238;2022-08-21T03:29:23;6.23;;;5.30;;
7883;SDS011;3987;51.458;7.238;2022-08-21T03:31:48;7.13;;;5.43;;
7883;SDS011;3987;51.458;7.238;2022-08-21T03:34:14;5.73;;;5.43;;
7883;SDS011;3987;51.458;7.238;2022-08-21T03:36:39;5.80;;;4.83;;
7883;SDS011;3987;51.458;7.238;2022-08-21T03:39:05;4.90;;;4.70;;
7883;SDS011;3987;51.458;7.238;2022-08-21T03:41:30;6.43;;;5.00;;
7883;SDS011;3987;51.458;7.238;2022-08-21T03:43:56;5.30;;;4.80;;
7883;SDS011;3987;51.458;7.238;2022-08-21T03:46:21;5.23;;;4.97;;
7883;SDS011;3987;51.458;7.238;2022-08-21T03:48:47;5.47;;;4.93;;
7883;SDS011;3987;51.458;7.238;2022-08-21T03:51:12;5.27;;;4.87;;
7883;SDS011;3987;51.458;7.238;2022-08-21T03:53:37;6.27;;;5.63;;
7883;SDS011;3987;51.458;7.238;2022-08-21T03:56:03;5.30;;;4.90;;
7883;SDS011;3987;51.458;7.238;2022-08-21T03:58:30;5.50;;;5.10;;
7883;SDS011;3987;51.458;7.238;2022-08-21T04:00:56;5.13;;;4.93;;
7883;SDS011;3987;51.458;7.238;2022-08-21T04:03:23;5.70;;;5.40;;
7883;SDS011;3987;51.458;7.238;2022-08-21T04:05:48;6.00;;;5.63;;
7883;SDS011;3987;51.458;7.238;2022-08-21T04:08:15;5.83;;;5.30;;
7883;SDS011;3987;51.458;7.238;2022-08-21T04:10:42;5.80;;;5.50;;
7883;SDS011;3987;51.458;7.238;2022-08-21T04:13:08;6.27;;;5.83;;
7883;SDS011;3987;51.458;7.238;2022-08-21T04:15:34;5.87;;;5.53;;
7883;SDS011;3987;51.458;7.238;2022-08-21T04:17:59;7.07;;;5.80;;
7883;SDS011;3987;51.458;7.238;2022-08-21T04:20:25;6.27;;;5.70;;
7883;SDS011;3987;51.458;7.238;2022-08-21T04:22:51;5.83;;;5.43;;
7883;SDS011;3987;51.458;7.238;2022-08-21T04:25:18;6.23;;;5.83;;
7883;SDS011;3987;51.458;7.238;2022-08-21T04:27:45;5.50;;;5.27;;
7883;SDS011;3987;51.458;7.238;2022-08-21T04:30:11;6.20;;;5.60;;
7883;SDS011;3987;51.458;7.238;2022-08-21T04:32:38;6.20;;;5.67;;
7883;SDS011;3987;51.458;7.238;2022-08-21T04:35:05;6.67;;;6.03;;
7883;SDS011;3987;51.458;7.238;2022-08-21T04:37:33;10.60;;;6.50;;
7883;SDS011;3987;51.458;7.238;2022-08-21T04:39:58;6.77;;;6.13;;
7883;SDS011;3987;51.458;7.238;2022-08-21T04:42:25;6.80;;;6.40;;
7883;SDS011;3987;51.458;7.238;2022-08-21T04:44:51;7.00;;;6.40;;
7883;SDS011;3987;51.458;7.238;2022-08-21T04:47:17;6.97;;;6.30;;
7883;SDS011;3987;51.458;7.238;2022-08-21T04:49:43;5.77;;;5.53;;
7883;SDS011;3987;51.458;7.238;2022-08-21T04:52:09;6.57;;;6.23;;
7883;SDS011;3987;51.458;7.238;2022-08-21T04:54:35;6.23;;;5.93;;
7883;SDS011;3987;51.458;7.238;2022-08-21T04:57:02;6.83;;;6.10;;
7883;SDS011;3987;51.458;7.238;2022-08-21T04:59:32;7.10;;;6.53;;
7883;SDS011;3987;51.458;7.238;2022-08-21T05:01:59;7.17;;;6.47;;
7883;SDS011;3987;51.458;7.238;2022-08-21T05:04:27;7.13;;;6.63;;
7883;SDS011;3987;51.458;7.238;2022-08-21T05:06:55;6.53;;;5.93;;
7883;SDS011;3987;51.458;7.238;2022-08-21T05:09:23;7.23;;;6.70;;
7883;SDS011;3987;51.458;7.238;2022-08-21T05:11:49;7.13;;;6.80;;
7883;SDS011;3987;51.458;7.238;2022-08-21T05:14:15;6.70;;;6.50;;
7883;SDS011;3987;51.458;7.238;2022-08-21T05:16:41;7.27;;;6.77;;
7883;SDS011;3987;51.458;7.238;2022-08-21T05:19:07;6.27;;;5.90;;
7883;SDS011;3987;51.458;7.238;2022-08-21T05:21:33;7.13;;;6.83;;
7883;SDS011;3987;51.458;7.238;2022-08-21T05:23:59;7.10;;;6.70;;
7883;SDS011;3987;51.458;7.238;2022-08-21T05:26:24;8.80;;;7.00;;
7883;SDS011;3987;51.458;7.238;2022-08-21T05:28:50;7.50;;;6.87;;
7883;SDS011;3987;51.458;7.238;2022-08-21T05:31:15;7.50;;;7.10;;
7883;SDS011;3987;51.458;7.238;2022-08-21T05:33:41;8.37;;;7.70;;
7883;SDS011;3987;51.458;7.238;2022-08-21T05:36:06;6.87;;;6.60;;
7883;SDS011;3987;51.458;7.238;2022-08-21T05:38:31;6.83;;;6.43;;
7883;SDS011;3987;51.458;7.238;2022-08-21T05:40:57;6.73;;;6.33;;
7883;SDS011;3987;51.458;7.238;2022-08-21T05:43:22;7.50;;;6.83;;
7883;SDS011;3987;51.458;7.238;2022-08-21T05:45:48;11.90;;;7.40;;
7883;SDS011;3987;51.458;7.238;2022-08-21T05:48:14;9.50;;;7.27;;
7883;SDS011;3987;51.458;7.238;2022-08-21T05:50:42;11.17;;;7.60;;
7883;SDS011;3987;51.458;7.238;2022-08-21T05:53:11;7.97;;;7.37;;
7883;SDS011;3987;51.458;7.238;2022-08-21T05:55:37;7.70;;;6.73;;
7883;SDS011;3987;51.458;7.238;2022-08-21T05:58:03;7.87;;;6.80;;
7883;SDS011;3987;51.458;7.238;2022-08-21T06:00:29;8.03;;;6.53;;
7883;SDS011;3987;51.458;7.238;2022-08-21T06:02:54;10.13;;;6.47;;
7883;SDS011;3987;51.458;7.238;2022-08-21T06:05:20;11.00;;;7.67;;
7883;SDS011;3987;51.458;7.238;2022-08-21T06:07:45;8.03;;;7.50;;
7883;SDS011;3987;51.458;7.238;2022-08-21T06:10:11;10.23;;;6.70;;
7883;SDS011;3987;51.458;7.238;2022-08-21T06:12:36;8.70;;;7.97;;
7883;SDS011;3987;51.458;7.238;2022-08-21T06:15:02;11.53;;;8.80;;
7883;SDS011;3987;51.458;7.238;2022-08-21T06:17:28;9.00;;;8.10;;
7883;SDS011;3987;51.458;7.238;2022-08-21T06:19:53;9.60;;;8.67;;
7883;SDS011;3987;51.458;7.238;2022-08-21T06:22:19;11.33;;;9.10;;
7883;SDS011;3987;51.458;7.238;2022-08-21T06:24:44;9.57;;;8.73;;
7883;SDS011;3987;51.458;7.238;2022-08-21T06:27:10;8.90;;;8.17;;
7883;SDS011;3987;51.458;7.238;2022-08-21T06:29:35;9.00;;;8.27;;
7883;SDS011;3987;51.458;7.238;2022-08-21T06:32:01;9.27;;;8.50;;
7883;SDS011;3987;51.458;7.238;2022-08-21T06:34:27;13.77;;;10.23;;
7883;SDS011;3987;51.458;7.238;2022-08-21T06:36:52;9.57;;;8.93;;
7883;SDS011;3987;51.458;7.238;2022-08-21T06:39:18;10.10;;;8.83;;
7883;SDS011;3987;51.458;7.238;2022-08-21T06:41:44;11.07;;;8.73;;
7883;SDS011;3987;51.458;7.238;2022-08-21T06:44:09;9.57;;;8.43;;
7883;SDS011;3987;51.458;7.238;2022-08-21T06:46:35;9.33;;;8.53;;
7883;SDS011;3987;51.458;7.238;2022-08-21T06:49:00;12.60;;;8.60;;
7883;SDS011;3987;51.458;7.238;2022-08-21T06:51:26;9.13;;;8.23;;
7883;SDS011;3987;51.458;7.238;2022-08-21T06:53:52;12.97;;;8.77;;
7883;SDS011;3987;51.458;7.238;2022-08-21T06:56:18;9.33;;;7.80;;
7883;SDS011;3987;51.458;7.238;2022-08-21T06:58:43;10.90;;;8.13;;
7883;SDS011;3987;51.458;7.238;2022-08-21T07:01:09;8.17;;;7.47;;
7883;SDS011;3987;51.458;7.238;2022-08-21T07:03:36;9.73;;;7.27;;
7883;SDS011;3987;51.458;7.238;2022-08-21T07:06:06;8.53;;;7.70;;
7883;SDS011;3987;51.458;7.238;2022-08-21T07:08:33;10.83;;;7.93;;
7883;SDS011;3987;51.458;7.238;2022-08-21T07:11:00;11.07;;;7.93;;
7883;SDS011;3987;51.458;7.238;2022-08-21T07:13:27;8.73;;;7.30;;
7883;SDS011;3987;51.458;7.238;2022-08-21T07:15:52;8.00;;;7.27;;
7883;SDS011;3987;51.458;7.238;2022-08-21T07:18:18;8.93;;;7.43;;
7883;SDS011;3987;51.458;7.238;2022-08-21T07:20:44;8.73;;;6.77;;
7883;SDS011;3987;51.458;7.238;2022-08-21T07:23:11;7.30;;;6.70;;
7883;SDS011;3987;51.458;7.238;2022-08-21T07:25:51;9.37;;;7.47;;
7883;SDS011;3987;51.458;7.238;2022-08-21T07:28:17;9.43;;;6.90;;
7883;SDS011;3987;51.458;7.238;2022-08-21T07:30:42;10.07;;;7.90;;
7883;SDS011;3987;51.458;7.238;2022-08-21T07:33:08;8.00;;;7.37;;
7883;SDS011;3987;51.458;7.238;2022-08-21T07:35:33;6.97;;;6.50;;
7883;SDS011;3987;51.458;7.238;2022-08-21T07:37:59;10.13;;;6.50;;
7883;SDS011;3987;51.458;7.238;2022-08-21T07:40:25;10.17;;;6.70;;
7883;SDS011;3987;51.458;7.238;2022-08-21T07:42:50;11.90;;;6.80;;
7883;SDS011;3987;51.458;7.238;2022-08-21T07:45:17;11.23;;;6.53;;
7883;SDS011;3987;51.458;7.238;2022-08-21T07:47:43;7.10;;;5.70;;
7883;SDS011;3987;51.458;7.238;2022-08-21T07:50:10;6.20;;;5.63;;
7883;SDS011;3987;51.458;7.238;2022-08-21T07:52:36;6.30;;;5.20;;
7883;SDS011;3987;51.458;7.238;2022-08-21T07:55:02;6.37;;;5.10;;
7883;SDS011;3987;51.458;7.238;2022-08-21T07:57:27;5.67;;;5.10;;
7883;SDS011;3987;51.458;7.238;2022-08-21T07:59:53;7.37;;;4.77;;
7883;SDS011;3987;51.458;7.238;2022-08-21T08:02:26;6.77;;;3.87;;
7883;SDS011;3987;51.458;7.238;2022-08-21T08:04:53;3.53;;;3.33;;
7883;SDS011;3987;51.458;7.238;2022-08-21T08:07:18;6.43;;;4.03;;
7883;SDS011;3987;51.458;7.238;2022-08-21T08:09:44;4.00;;;3.07;;
7883;SDS011;3987;51.458;7.238;2022-08-21T08:12:09;3.53;;;2.47;;
7883;SDS011;3987;51.458;7.238;2022-08-21T08:14:35;4.07;;;2.37;;
7883;SDS011;3987;51.458;7.238;2022-08-21T08:17:01;5.57;;;2.73;;
7883;SDS011;3987;51.458;7.238;2022-08-21T08:19:27;6.83;;;2.63;;
7883;SDS011;3987;51.458;7.238;2022-08-21T08:21:52;3.03;;;2.73;;
7883;SDS011;3987;51.458;7.238;2022-08-21T08:24:18;5.03;;;1.97;;
7883;SDS011;3987;51.458;7.238;2022-08-21T08:26:43;3.47;;;2.20;;
7883;SDS011;3987;51.458;7.238;2022-08-21T08:29:08;2.90;;;2.20;;
7883;SDS011;3987;51.458;7.238;2022-08-21T08:31:34;6.00;;;2.00;;
7883;SDS011;3987;51.458;7.238;2022-08-21T08:33:59;2.23;;;1.90;;
7883;SDS011;3987;51.458;7.238;2022-08-21T08:36:31;3.40;;;1.90;;
7883;SDS011;3987;51.458;7.238;2022-08-21T08:39:01;3.27;;;1.87;;
7883;SDS011;3987;51.458;7.238;2022-08-21T08:41:27;1.93;;;1.67;;
7883;SDS011;3987;51.458;7.238;2022-08-21T08:43:59;3.20;;;1.40;;
7883;SDS011;3987;51.458;7.238;2022-08-21T08:46:34;1.60;;;1.50;;
7883;SDS011;3987;51.458;7.238;2022-08-21T08:49:08;5.83;;;1.97;;
7883;SDS011;3987;51.458;7.238;2022-08-21T08:51:47;2.67;;;1.77;;
7883;SDS011;3987;51.458;7.238;2022-08-21T08:54:19;1.90;;;1.33;;
7883;SDS011;3987;51.458;7.238;2022-08-21T08:56:50;6.83;;;2.13;;
7883;SDS011;3987;51.458;7.238;2022-08-21T08:59:22;2.77;;;2.00;;
7883;SDS011;3987;51.458;7.238;2022-08-21T09:01:51;3.30;;;2.07;;
7883;SDS011;3987;51.458;7.238;2022-08-21T09:04:18;4.93;;;1.90;;
7883;SDS011;3987;51.458;7.238;2022-08-21T09:06:53;1.80;;;1.70;;
7883;SDS011;3987;51.458;7.238;2022-08-21T09:12:17;2.93;;;1.97;;
7883;SDS011;3987;51.458;7.238;2022-08-21T09:17:36;4.73;;;2.10;;
7883;SDS011;3987;51.458;7.238;2022-08-21T09:20:12;2.97;;;1.80;;
7883;SDS011;3987;51.458;7.238;2022-08-21T09:25:28;3.20;;;1.40;;
7883;SDS011;3987;51.458;7.238;2022-08-21T09:28:01;2.53;;;2.10;;
7883;SDS011;3987;51.458;7.238;2022-08-21T09:30:28;2.60;;;2.03;;
7883;SDS011;3987;51.458;7.238;2022-08-21T09:32:55;2.07;;;1.60;;
7883;SDS011;3987;51.458;7.238;2022-08-21T09:35:21;2.33;;;1.37;;
7883;SDS011;3987;51.458;7.238;2022-08-21T09:37:59;8.13;;;1.90;;
7883;SDS011;3987;51.458;7.238;2022-08-21T09:40:39;4.30;;;1.67;;
7883;SDS011;3987;51.458;7.238;2022-08-21T09:45:34;4.53;;;1.33;;
7883;SDS011;3987;51.458;7.238;2022-08-21T09:48:18;3.33;;;1.90;;
7883;SDS011;3987;51.458;7.238;2022-08-21T09:50:45;3.20;;;1.70;;
7883;SDS011;3987;51.458;7.238;2022-08-21T09:53:15;3.67;;;1.73;;
7883;SDS011;3987;51.458;7.238;2022-08-21T09:55:59;4.63;;;1.67;;
7883;SDS011;3987;51.458;7.238;2022-08-21T09:58:46;3.07;;;1.60;;
7883;SDS011;3987;51.458;7.238;2022-08-21T10:01:24;3.93;;;1.47;;
7883;SDS011;3987;51.458;7.238;2022-08-21T10:04:03;1.53;;;1.43;;
7883;SDS011;3987;51.458;7.238;2022-08-21T10:06:30;2.13;;;1.10;;
7883;SDS011;3987;51.458;7.238;2022-08-21T10:09:03;8.87;;;1.80;;
7883;SDS011;3987;51.458;7.238;2022-08-21T10:11:34;4.20;;;1.50;;
7883;SDS011;3987;51.458;7.238;2022-08-21T10:14:14;2.20;;;1.40;;
7883;SDS011;3987;51.458;7.238;2022-08-21T10:22:07;2.60;;;1.33;;
7883;SDS011;3987;51.458;7.238;2022-08-21T10:24:51;1.37;;;1.13;;
7883;SDS011;3987;51.458;7.238;2022-08-21T10:27:47;2.03;;;1.00;;
7883;SDS011;3987;51.458;7.238;2022-08-21T10:30:48;2.47;;;1.27;;
7883;SDS011;3987;51.458;7.238;2022-08-21T10:33:38;2.30;;;1.50;;
7883;SDS011;3987;51.458;7.238;2022-08-21T10:36:14;2.27;;;1.17;;
7883;SDS011;3987;51.458;7.238;2022-08-21T10:41:46;3.83;;;1.00;;
7883;SDS011;3987;51.458;7.238;2022-08-21T10:44:30;1.80;;;0.77;;
7883;SDS011;3987;51.458;7.238;2022-08-21T10:47:15;2.33;;;1.20;;
7883;SDS011;3987;51.458;7.238;2022-08-21T10:55:51;1.97;;;0.90;;
7883;SDS011;3987;51.458;7.238;2022-08-21T11:01:00;1.27;;;0.63;;
7883;SDS011;3987;51.458;7.238;2022-08-21T11:03:33;2.20;;;0.93;;
7883;SDS011;3987;51.458;7.238;2022-08-21T11:06:13;3.63;;;1.00;;
7883;SDS011;3987;51.458;7.238;2022-08-21T11:08:42;1.30;;;0.93;;
7883;SDS011;3987;51.458;7.238;2022-08-21T11:11:15;1.23;;;0.73;;
7883;SDS011;3987;51.458;7.238;2022-08-21T11:13:45;1.13;;;0.97;;
7883;SDS011;3987;51.458;7.238;2022-08-21T11:18:58;1.30;;;0.70;;
7883;SDS011;3987;51.458;7.238;2022-08-21T11:21:29;5.57;;;1.00;;
7883;SDS011;3987;51.458;7.238;2022-08-21T11:26:49;0.97;;;0.50;;
7883;SDS011;3987;51.458;7.238;2022-08-21T11:29:23;2.17;;;0.80;;
7883;SDS011;3987;51.458;7.238;2022-08-21T11:40:34;1.40;;;0.53;;
7883;SDS011;3987;51.458;7.238;2022-08-21T11:45:54;1.13;;;0.80;;
7883;SDS011;3987;51.458;7.238;2022-08-21T11:51:25;0.60;;;0.60;;
7883;SDS011;3987;51.458;7.238;2022-08-21T11:53:59;1.33;;;0.73;;
7883;SDS011;3987;51.458;7.238;2022-08-21T11:56:36;2.63;;;0.63;;
7883;SDS011;3987;51.458;7.238;2022-08-21T11:59:06;0.60;;;0.60;;
7883;SDS011;3987;51.458;7.238;2022-08-21T12:01:38;1.33;;;0.73;;
7883;SDS011;3987;51.458;7.238;2022-08-21T12:04:15;1.27;;;0.70;;
7883;SDS011;3987;51.458;7.238;2022-08-21T12:06:44;0.70;;;0.70;;
7883;SDS011;3987;51.458;7.238;2022-08-21T12:12:01;0.60;;;0.60;;
7883;SDS011;3987;51.458;7.238;2022-08-21T12:14:44;0.80;;;0.73;;
7883;SDS011;3987;51.458;7.238;2022-08-21T12:17:21;2.07;;;0.90;;
7883;SDS011;3987;51.458;7.238;2022-08-21T12:19:58;1.07;;;0.70;;
7883;SDS011;3987;51.458;7.238;2022-08-21T12:22:35;1.40;;;0.60;;
7883;SDS011;3987;51.458;7.238;2022-08-21T12:25:03;0.80;;;0.40;;
7883;SDS011;3987;51.458;7.238;2022-08-21T12:27:45;1.23;;;0.43;;
7883;SDS011;3987;51.458;7.238;2022-08-21T12:35:52;0.87;;;0.57;;
7883;SDS011;3987;51.458;7.238;2022-08-21T12:38:29;0.40;;;0.40;;
7883;SDS011;3987;51.458;7.238;2022-08-21T12:41:03;0.60;;;0.37;;
7883;SDS011;3987;51.458;7.238;2022-08-21T12:43:41;1.23;;;0.40;;
7883;SDS011;3987;51.458;7.238;2022-08-21T12:46:18;0.30;;;0.30;;
7883;SDS011;3987;51.458;7.238;2022-08-21T12:48:52;0.77;;;0.50;;
7883;SDS011;3987;51.458;7.238;2022-08-21T12:52:23;0.40;;;0.40;;
7883;SDS011;3987;51.458;7.238;2022-08-21T12:54:21;1.37;;;0.57;;
7883;SDS011;3987;51.458;7.238;2022-08-21T12:56:58;0.40;;;0.37;;
7883;SDS011;3987;51.458;7.238;2022-08-21T12:59:25;1.63;;;0.70;;
7883;SDS011;3987;51.458;7.238;2022-08-21T13:01:51;0.43;;;0.30;;
7883;SDS011;3987;51.458;7.238;2022-08-21T13:04:20;1.43;;;0.43;;
7883;SDS011;3987;51.458;7.238;2022-08-21T13:06:49;0.70;;;0.60;;
7883;SDS011;3987;51.458;7.238;2022-08-21T13:09:17;1.27;;;0.50;;
7883;SDS011;3987;51.458;7.238;2022-08-21T13:11:45;0.57;;;0.40;;
7883;SDS011;3987;51.458;7.238;2022-08-21T13:14:32;0.60;;;0.40;;
7883;SDS011;3987;51.458;7.238;2022-08-21T13:17:03;0.73;;;0.43;;
7883;SDS011;3987;51.458;7.238;2022-08-21T13:19:29;0.47;;;0.47;;
7883;SDS011;3987;51.458;7.238;2022-08-21T13:21:56;0.97;;;0.40;;
7883;SDS011;3987;51.458;7.238;2022-08-21T13:24:24;0.50;;;0.50;;
7883;SDS011;3987;51.458;7.238;2022-08-21T13:26:51;0.87;;;0.53;;
7883;SDS011;3987;51.458;7.238;2022-08-21T13:29:18;0.60;;;0.57;;
7883;SDS011;3987;51.458;7.238;2022-08-21T13:31:53;1.70;;;0.63;;
7883;SDS011;3987;51.458;7.238;2022-08-21T13:34:24;2.00;;;0.50;;
7883;SDS011;3987;51.458;7.238;2022-08-21T13:36:52;1.03;;;0.70;;
7883;SDS011;3987;51.458;7.238;2022-08-21T13:39:23;0.87;;;0.50;;
7883;SDS011;3987;51.458;7.238;2022-08-21T13:41:49;0.60;;;0.60;;
7883;SDS011;3987;51.458;7.238;2022-08-21T13:44:18;0.97;;;0.53;;
7883;SDS011;3987;51.458;7.238;2022-08-21T13:46:46;1.77;;;0.50;;
7883;SDS011;3987;51.458;7.238;2022-08-21T13:49:15;0.70;;;0.50;;
7883;SDS011;3987;51.458;7.238;2022-08-21T13:51:42;0.80;;;0.50;;
7883;SDS011;3987;51.458;7.238;2022-08-21T13:54:41;0.67;;;0.50;;
7883;SDS011;3987;51.458;7.238;2022-08-21T13:57:02;0.70;;;0.70;;
7883;SDS011;3987;51.458;7.238;2022-08-21T13:59:29;0.97;;;0.53;;
7883;SDS011;3987;51.458;7.238;2022-08-21T14:01:57;0.90;;;0.40;;
7883;SDS011;3987;51.458;7.238;2022-08-21T14:04:26;1.10;;;0.43;;
7883;SDS011;3987;51.458;7.238;2022-08-21T14:07:17;0.83;;;0.40;;
7883;SDS011;3987;51.458;7.238;2022-08-21T14:09:45;2.00;;;0.50;;
7883;SDS011;3987;51.458;7.238;2022-08-21T14:14:50;0.60;;;0.60;;
7883;SDS011;3987;51.458;7.238;2022-08-21T14:17:31;0.33;;;0.30;;
7883;SDS011;3987;51.458;7.238;2022-08-21T14:19:58;1.70;;;0.70;;
7883;SDS011;3987;51.458;7.238;2022-08-21T14:25:08;0.50;;;0.50;;
7883;SDS011;3987;51.458;7.238;2022-08-21T14:27:44;2.30;;;0.57;;
7883;SDS011;3987;51.458;7.238;2022-08-21T14:30:39;2.93;;;0.40;;
7883;SDS011;3987;51.458;7.238;2022-08-21T14:33:04;1.10;;;0.60;;
7883;SDS011;3987;51.458;7.238;2022-08-21T14:35:34;0.80;;;0.40;;
7883;SDS011;3987;51.458;7.238;2022-08-21T14:37:59;1.20;;;0.43;;
7883;SDS011;3987;51.458;7.238;2022-08-21T14:40:25;0.77;;;0.77;;
7883;SDS011;3987;51.458;7.238;2022-08-21T14:42:50;0.90;;;0.50;;
7883;SDS011;3987;51.458;7.238;2022-08-21T14:45:17;0.60;;;0.60;;
7883;SDS011;3987;51.458;7.238;2022-08-21T14:47:45;1.27;;;0.90;;
7883;SDS011;3987;51.458;7.238;2022-08-21T14:50:11;1.23;;;0.70;;
7883;SDS011;3987;51.458;7.238;2022-08-21T14:52:38;0.77;;;0.70;;
7883;SDS011;3987;51.458;7.238;2022-08-21T14:55:04;0.90;;;0.70;;
7883;SDS011;3987;51.458;7.238;2022-08-21T14:57:31;1.50;;;0.60;;
7883;SDS011;3987;51.458;7.238;2022-08-21T14:59:56;0.97;;;0.70;;
7883;SDS011;3987;51.458;7.238;2022-08-21T15:02:22;2.43;;;0.77;;
7883;SDS011;3987;51.458;7.238;2022-08-21T15:04:48;0.93;;;0.87;;
7883;SDS011;3987;51.458;7.238;2022-08-21T15:07:13;2.93;;;0.53;;
7883;SDS011;3987;51.458;7.238;2022-08-21T15:09:38;0.70;;;0.70;;
7883;SDS011;3987;51.458;7.238;2022-08-21T15:12:04;0.67;;;0.67;;
7883;SDS011;3987;51.458;7.238;2022-08-21T15:14:32;0.70;;;0.70;;
7883;SDS011;3987;51.458;7.238;2022-08-21T15:16:58;0.97;;;0.80;;
7883;SDS011;3987;51.458;7.238;2022-08-21T15:19:24;0.60;;;0.60;;
7883;SDS011;3987;51.458;7.238;2022-08-21T15:21:50;1.77;;;0.73;;
7883;SDS011;3987;51.458;7.238;2022-08-21T15:24:15;0.80;;;0.67;;
7883;SDS011;3987;51.458;7.238;2022-08-21T15:26:41;1.20;;;0.60;;
7883;SDS011;3987;51.458;7.238;2022-08-21T15:29:07;0.73;;;0.70;;
7883;SDS011;3987;51.458;7.238;2022-08-21T15:31:33;2.87;;;1.00;;
7883;SDS011;3987;51.458;7.238;2022-08-21T15:33:59;1.27;;;0.67;;
7883;SDS011;3987;51.458;7.238;2022-08-21T15:36:25;0.97;;;0.60;;
7883;SDS011;3987;51.458;7.238;2022-08-21T15:38:50;0.67;;;0.50;;
7883;SDS011;3987;51.458;7.238;2022-08-21T15:41:16;1.87;;;0.70;;
7883;SDS011;3987;51.458;7.238;2022-08-21T15:43:45;1.97;;;0.70;;
7883;SDS011;3987;51.458;7.238;2022-08-21T15:46:13;0.90;;;0.80;;
7883;SDS011;3987;51.458;7.238;2022-08-21T15:48:39;0.40;;;0.40;;
7883;SDS011;3987;51.458;7.238;2022-08-21T15:51:05;0.63;;;0.63;;
7883;SDS011;3987;51.458;7.238;2022-08-21T15:53:30;0.77;;;0.40;;
7883;SDS011;3987;51.458;7.238;2022-08-21T15:56:03;1.87;;;0.70;;
7883;SDS011;3987;51.458;7.238;2022-08-21T15:58:29;0.77;;;0.60;;
7883;SDS011;3987;51.458;7.238;2022-08-21T16:00:55;0.67;;;0.50;;
7883;SDS011;3987;51.458;7.238;2022-08-21T16:03:23;1.50;;;0.50;;
7883;SDS011;3987;51.458;7.238;2022-08-21T16:05:50;2.00;;;0.80;;
7883;SDS011;3987;51.458;7.238;2022-08-21T16:08:17;1.53;;;0.53;;
7883;SDS011;3987;51.458;7.238;2022-08-21T16:10:43;3.00;;;0.60;;
7883;SDS011;3987;51.458;7.238;2022-08-21T16:13:14;1.33;;;0.60;;
7883;SDS011;3987;51.458;7.238;2022-08-21T16:15:44;1.17;;;1.13;;
7883;SDS011;3987;51.458;7.238;2022-08-21T16:18:09;1.47;;;0.90;;
7883;SDS011;3987;51.458;7.238;2022-08-21T16:20:35;1.13;;;0.70;;
7883;SDS011;3987;51.458;7.238;2022-08-21T16:23:00;2.23;;;1.03;;
7883;SDS011;3987;51.458;7.238;2022-08-21T16:25:27;1.63;;;0.60;;
7883;SDS011;3987;51.458;7.238;2022-08-21T16:27:54;0.80;;;0.70;;